KIAG/IAG METAR and TAF weather

Enter ICAO airport designator
Station Type Date Time Source
KIAG METAR 2021/01/22 05:53 UTC NOAA

KIAG 220553Z AUTO 26011KT 10SM OVC065 01/M03 A2954 RMK AO2 SLP015 T00111033 10022 20011 51011 $


Station Type Date Time Source
KIAG Decoded METAR 2021/01/22 05:53 UTC NOAA

NIAGARA FALLS INTERNATIONAL AIRPORT, NY, United States (KIAG) 43-07N 078-56W 182M
Jan 22, 2021 - 12:53 AM EST / 2021.01.22 0553 UTC
Wind: from the W (260 degrees) at 13 MPH (11 KT):0
Visibility: 10 mile(s):0
Sky conditions: overcast
Temperature: 34.0 F (1.1 C)
Windchill: 24 F (-4 C):1
Dew Point: 26.1 F (-3.3 C)
Relative Humidity: 72%
Pressure (altimeter): 29.54 in. Hg (1000 hPa)
Pressure tendency: 0.03 inches (1.1 hPa) higher than three hours ago
ob: KIAG 220553Z AUTO 26011KT 10SM OVC065 01/M03 A2954 RMK AO2 SLP015 T00111033 10022 20011 51011
cycle: 6

Station Type Date Time Source
KIAG TAF 2021/01/22 06:42 UTC NOAA

TAF KIAG 220539Z 2206/2306 25011KT P6SM BKN045
FM221000 26011KT P6SM OVC020
FM221400 29012KT P6SM OVC020
FM221600 29015G24KT P6SM BKN030
FM230200 29012KT P6SM BKN035

Example: see airport list